createdAt,value
2023-05-09T00:00:56.998Z,2.30
2023-05-09T00:03:25.066Z,2.50
2023-05-09T00:05:53.182Z,2.50
2023-05-09T00:08:22.460Z,2.60
2023-05-09T00:10:52.466Z,2.03
2023-05-09T00:13:20.924Z,2.00
2023-05-09T00:15:49.530Z,2.33
2023-05-09T00:18:18.247Z,2.70
2023-05-09T00:20:46.307Z,1.97
2023-05-09T00:23:14.490Z,2.50
2023-05-09T00:25:43.988Z,2.33
2023-05-09T00:28:11.960Z,2.22
2023-05-09T00:30:40.033Z,2.10
2023-05-09T00:33:08.127Z,2.03
2023-05-09T00:35:36.232Z,2.43
2023-05-09T00:38:04.357Z,2.23
2023-05-09T00:40:32.452Z,2.10
2023-05-09T00:43:01.827Z,2.10
2023-05-09T00:45:29.897Z,2.23
2023-05-09T00:47:58.617Z,2.00
2023-05-09T00:50:26.558Z,2.47
2023-05-09T00:52:54.940Z,2.60
2023-05-09T00:55:24.118Z,2.57
2023-05-09T00:57:52.145Z,2.70
2023-05-09T01:00:21.938Z,2.70
2023-05-09T01:02:56.755Z,2.38
2023-05-09T01:05:32.876Z,2.93
2023-05-09T01:08:08.780Z,2.53
2023-05-09T01:10:44.703Z,2.70
2023-05-09T01:13:22.893Z,2.90
2023-05-09T01:15:55.637Z,2.80
2023-05-09T01:18:31.339Z,3.03
2023-05-09T01:21:05.097Z,2.47
2023-05-09T01:24:01.486Z,2.20
2023-05-09T01:26:44.642Z,2.70
2023-05-09T01:29:35.643Z,2.40
2023-05-09T01:32:06.119Z,2.40
2023-05-09T01:37:07.439Z,2.30
2023-05-09T01:39:38.287Z,2.47
2023-05-09T01:42:10.808Z,2.60
2023-05-09T01:44:42.469Z,2.30
2023-05-09T01:47:12.482Z,2.77
2023-05-09T01:49:42.649Z,2.90
2023-05-09T01:52:14.861Z,2.65
2023-05-09T01:54:44.845Z,3.07
2023-05-09T01:57:14.001Z,2.85
2023-05-09T01:59:46.318Z,2.93
2023-05-09T02:02:15.025Z,2.80
2023-05-09T02:04:44.564Z,2.80
2023-05-09T02:07:13.641Z,2.70
2023-05-09T02:09:41.977Z,2.70
2023-05-09T02:12:09.970Z,2.60
2023-05-09T02:14:38.082Z,2.53
2023-05-09T02:17:09.704Z,2.90
2023-05-09T02:19:37.746Z,3.00
2023-05-09T02:22:06.068Z,2.87
2023-05-09T02:24:35.267Z,3.40
2023-05-09T02:27:04.765Z,2.87
2023-05-09T02:29:39.996Z,2.80
2023-05-09T02:32:11.353Z,2.20
2023-05-09T02:34:40.701Z,3.17
2023-05-09T02:37:09.935Z,2.73
2023-05-09T02:39:40.988Z,2.80
2023-05-09T02:42:10.773Z,2.70
2023-05-09T02:44:39.305Z,3.03
2023-05-09T02:47:09.066Z,2.77
2023-05-09T02:49:37.218Z,2.72
2023-05-09T02:52:08.126Z,2.47
2023-05-09T02:54:36.014Z,3.13
2023-05-09T02:57:04.270Z,2.93
2023-05-09T02:59:32.347Z,2.63
2023-05-09T03:02:00.254Z,3.10
2023-05-09T03:04:29.828Z,2.83
2023-05-09T03:06:57.830Z,2.90
2023-05-09T03:09:25.758Z,3.77
2023-05-09T03:11:53.891Z,3.00
2023-05-09T03:14:21.912Z,3.00
2023-05-09T03:16:50.029Z,2.90
2023-05-09T03:19:20.023Z,3.27
2023-05-09T03:21:49.748Z,2.80
2023-05-09T03:24:17.827Z,3.13
2023-05-09T03:26:45.865Z,3.10
2023-05-09T03:29:13.915Z,3.47
2023-05-09T03:31:41.875Z,3.23
2023-05-09T03:34:15.269Z,3.40
2023-05-09T03:36:43.714Z,3.50
2023-05-09T03:39:13.183Z,3.40
2023-05-09T03:41:41.937Z,3.95
2023-05-09T03:44:10.096Z,3.80
2023-05-09T03:46:38.111Z,3.50
2023-05-09T03:49:06.175Z,3.73
2023-05-09T03:51:34.221Z,3.53
2023-05-09T03:54:02.332Z,3.90
2023-05-09T03:56:31.742Z,3.97
2023-05-09T03:58:59.892Z,3.93
2023-05-09T04:01:28.029Z,3.50
2023-05-09T04:03:57.578Z,3.53
2023-05-09T04:06:25.952Z,4.03
2023-05-09T04:08:54.223Z,3.90
2023-05-09T04:11:22.787Z,3.97
2023-05-09T04:13:52.174Z,3.80
2023-05-09T04:16:20.373Z,3.97
2023-05-09T04:18:48.384Z,3.93
2023-05-09T04:21:16.507Z,3.70
2023-05-09T04:23:44.814Z,3.47
2023-05-09T04:26:14.005Z,3.50
2023-05-09T04:28:42.024Z,3.93
2023-05-09T04:31:13.003Z,3.30
2023-05-09T04:33:41.119Z,3.57
2023-05-09T04:36:09.737Z,3.40
2023-05-09T04:38:37.770Z,3.57
2023-05-09T04:41:06.025Z,3.87
2023-05-09T04:43:34.466Z,3.23
2023-05-09T04:46:02.853Z,3.47
2023-05-09T04:48:32.232Z,3.60
2023-05-09T04:51:00.330Z,3.20
2023-05-09T04:53:28.582Z,3.43
2023-05-09T04:55:59.608Z,3.30
2023-05-09T04:58:27.783Z,3.07
2023-05-09T05:00:55.984Z,3.30
2023-05-09T05:03:23.926Z,3.63
2023-05-09T05:05:53.485Z,3.10
2023-05-09T05:08:21.494Z,3.00
2023-05-09T05:10:49.708Z,2.90
2023-05-09T05:13:18.026Z,3.07
2023-05-09T05:15:46.237Z,2.60
2023-05-09T05:18:14.214Z,3.17
2023-05-09T05:20:42.923Z,2.77
2023-05-09T05:23:12.452Z,3.07
2023-05-09T05:25:40.445Z,2.25
2023-05-09T05:28:08.643Z,2.80
2023-05-09T05:30:36.670Z,2.67
2023-05-09T05:33:04.786Z,2.60
2023-05-09T05:35:32.771Z,2.47
2023-05-09T05:38:01.171Z,2.80
2023-05-09T05:40:30.514Z,2.67
2023-05-09T05:42:58.572Z,3.07
2023-05-09T05:45:26.896Z,2.70
2023-05-09T05:47:56.261Z,2.60
2023-05-09T05:50:24.541Z,2.57
2023-05-09T05:52:52.584Z,2.63
2023-05-09T05:55:20.668Z,2.37
2023-05-09T05:57:51.113Z,2.80
2023-05-09T06:02:47.977Z,2.47
2023-05-09T06:05:16.583Z,2.60
2023-05-09T06:07:45.830Z,2.70
2023-05-09T06:10:16.023Z,2.10
2023-05-09T06:12:44.072Z,2.72
2023-05-09T06:15:14.018Z,2.23
2023-05-09T06:17:42.133Z,2.60
2023-05-09T06:20:10.413Z,2.40
2023-05-09T06:22:38.550Z,2.77
2023-05-09T06:25:09.482Z,2.50
2023-05-09T06:27:38.447Z,2.63
2023-05-09T06:30:23.985Z,2.50
2023-05-09T06:32:55.661Z,3.00
2023-05-09T06:35:23.782Z,2.40
2023-05-09T06:37:51.794Z,2.43
2023-05-09T06:40:19.947Z,2.57
2023-05-09T06:42:48.231Z,2.60
2023-05-09T06:45:16.515Z,2.60
2023-05-09T06:47:44.618Z,2.90
2023-05-09T06:50:14.347Z,2.77
2023-05-09T06:52:42.408Z,2.20
2023-05-09T06:55:12.127Z,2.60
2023-05-09T06:57:40.829Z,2.15
2023-05-09T07:00:10.770Z,2.53
2023-05-09T07:02:42.398Z,2.50
2023-05-09T07:05:11.556Z,2.50
2023-05-09T07:07:41.133Z,2.40
2023-05-09T07:10:12.346Z,2.60
2023-05-09T07:12:41.669Z,2.42
2023-05-09T07:15:14.668Z,2.60
2023-05-09T07:17:46.748Z,2.30
2023-05-09T07:20:14.898Z,2.50
2023-05-09T07:22:44.269Z,2.55
2023-05-09T07:25:12.593Z,2.40
2023-05-09T07:27:40.865Z,2.10
2023-05-09T07:30:10.246Z,2.45
2023-05-09T07:32:38.582Z,2.50
2023-05-09T07:35:07.091Z,2.75
2023-05-09T07:37:35.114Z,2.35
2023-05-09T07:40:06.252Z,2.55
2023-05-09T07:42:34.297Z,2.20
2023-05-09T07:45:04.451Z,2.30
2023-05-09T07:47:32.676Z,2.33
2023-05-09T07:50:00.826Z,2.30
2023-05-09T07:52:28.981Z,1.90
2023-05-09T07:54:57.003Z,2.30
2023-05-09T07:57:28.430Z,2.13
2023-05-09T07:59:56.604Z,2.67
2023-05-09T08:02:27.650Z,2.03
2023-05-09T08:04:55.741Z,2.65
2023-05-09T08:07:23.647Z,2.50
2023-05-09T08:09:51.882Z,2.35
2023-05-09T08:12:20.010Z,2.25
2023-05-09T08:14:49.358Z,2.30
2023-05-09T08:17:17.840Z,2.20
2023-05-09T08:19:45.970Z,2.33
2023-05-09T08:22:18.392Z,2.10
2023-05-09T08:24:46.696Z,2.08
2023-05-09T08:27:15.652Z,2.17
2023-05-09T08:29:44.524Z,2.20
2023-05-09T08:32:14.353Z,2.50
2023-05-09T08:34:42.622Z,2.13
2023-05-09T08:37:11.839Z,2.00
2023-05-09T08:39:41.060Z,1.95
2023-05-09T08:42:10.497Z,2.13
2023-05-09T08:44:38.449Z,2.28
2023-05-09T08:47:06.480Z,2.20
2023-05-09T08:49:36.687Z,2.40
2023-05-09T08:52:05.823Z,2.40
2023-05-09T08:54:36.282Z,2.10
2023-05-09T08:57:04.545Z,1.95
2023-05-09T08:59:35.182Z,2.22
2023-05-09T09:02:03.458Z,1.92
2023-05-09T09:04:31.583Z,1.80
2023-05-09T09:07:01.420Z,1.98
2023-05-09T09:09:29.785Z,1.67
2023-05-09T09:11:58.363Z,2.10
2023-05-09T09:14:28.717Z,2.00
2023-05-09T09:19:31.996Z,1.60
2023-05-09T09:22:05.766Z,2.08
2023-05-09T09:24:35.540Z,1.73
2023-05-09T09:27:07.625Z,1.63
2023-05-09T09:29:35.740Z,1.90
2023-05-09T09:32:04.916Z,1.88
2023-05-09T09:34:32.956Z,1.90
2023-05-09T09:37:02.497Z,1.60
2023-05-09T09:39:30.446Z,1.60
2023-05-09T09:41:58.373Z,1.60
2023-05-09T09:44:27.906Z,1.40
2023-05-09T09:46:56.693Z,1.60
2023-05-09T09:49:26.451Z,1.65
2023-05-09T09:51:55.710Z,1.60
2023-05-09T09:54:28.144Z,1.70
2023-05-09T09:56:56.599Z,1.83
2023-05-09T09:59:26.719Z,1.50
2023-05-09T10:02:00.744Z,1.73
2023-05-09T10:04:31.548Z,1.52
2023-05-09T10:07:00.858Z,1.48
2023-05-09T10:09:30.732Z,1.40
2023-05-09T10:12:02.817Z,1.33
2023-05-09T10:14:34.945Z,1.55
2023-05-09T10:17:05.215Z,1.50
2023-05-09T10:22:06.528Z,1.50
2023-05-09T10:24:43.303Z,1.45
2023-05-09T10:27:13.168Z,1.63
2023-05-09T10:29:46.631Z,1.42
2023-05-09T10:32:24.668Z,1.75
2023-05-09T10:34:55.770Z,1.92
2023-05-09T10:37:24.450Z,1.52
2023-05-09T10:39:55.754Z,1.70
2023-05-09T10:42:25.298Z,2.00
2023-05-09T10:44:54.295Z,1.83
2023-05-09T10:47:23.451Z,1.70
2023-05-09T10:49:53.327Z,1.73
2023-05-09T10:52:22.650Z,1.60
2023-05-09T10:55:02.377Z,1.53
2023-05-09T10:57:31.482Z,1.90
2023-05-09T11:00:01.441Z,1.90
2023-05-09T11:02:32.358Z,2.13
2023-05-09T11:05:17.588Z,1.90
2023-05-09T11:07:45.939Z,1.77
2023-05-09T11:10:18.971Z,2.00
2023-05-09T11:12:58.221Z,1.80
2023-05-09T11:15:27.737Z,1.60
2023-05-09T11:18:07.364Z,1.90
2023-05-09T11:20:36.534Z,1.77
2023-05-09T11:23:06.896Z,1.75
2023-05-09T11:25:36.593Z,2.05
2023-05-09T11:28:04.663Z,1.80
2023-05-09T11:30:41.763Z,1.80
2023-05-09T11:33:24.056Z,1.65
2023-05-09T11:36:16.724Z,2.17
2023-05-09T11:38:44.771Z,1.88
2023-05-09T11:41:14.581Z,1.88
2023-05-09T11:43:45.032Z,1.75
2023-05-09T11:46:13.156Z,1.95
2023-05-09T11:48:42.002Z,2.22
2023-05-09T11:51:18.391Z,2.00
2023-05-09T11:53:47.775Z,2.15
2023-05-09T11:56:17.388Z,2.00
2023-05-09T11:58:46.926Z,2.03
2023-05-09T12:01:15.168Z,2.30
2023-05-09T12:03:45.329Z,2.30
2023-05-09T12:08:45.215Z,1.83
2023-05-09T12:11:13.883Z,2.10
2023-05-09T12:13:51.043Z,2.20
2023-05-09T12:16:19.763Z,2.47
2023-05-09T12:18:49.792Z,2.50
2023-05-09T12:21:18.283Z,2.28
2023-05-09T12:23:48.928Z,2.47
2023-05-09T12:26:18.938Z,2.50
2023-05-09T12:28:46.984Z,2.25
2023-05-09T12:31:17.400Z,2.70
2023-05-09T12:33:47.845Z,2.80
2023-05-09T12:36:17.826Z,2.25
2023-05-09T12:38:54.492Z,2.70
2023-05-09T12:43:58.343Z,2.28
2023-05-09T12:46:27.836Z,2.58
2023-05-09T12:48:56.462Z,2.30
2023-05-09T12:51:24.821Z,2.85
2023-05-09T12:53:52.855Z,2.30
2023-05-09T12:56:23.011Z,2.63
2023-05-09T13:01:20.030Z,2.47
2023-05-09T13:03:54.382Z,2.78
2023-05-09T13:06:25.051Z,2.70
2023-05-09T13:09:01.669Z,2.58
2023-05-09T13:11:30.322Z,2.60
2023-05-09T13:13:58.440Z,2.50
2023-05-09T13:16:27.080Z,2.33
2023-05-09T13:18:56.950Z,2.47
2023-05-09T13:21:24.987Z,2.42
2023-05-09T13:23:52.998Z,2.53
2023-05-09T13:27:13.058Z,2.70
2023-05-09T13:29:41.278Z,2.63
2023-05-09T13:32:09.283Z,2.60
2023-05-09T13:34:38.614Z,2.55
2023-05-09T13:37:06.678Z,2.37
2023-05-09T13:39:34.674Z,2.20
2023-05-09T13:42:03.968Z,2.15
2023-05-09T13:44:31.993Z,2.13
2023-05-09T13:47:00.349Z,2.08
2023-05-09T13:49:28.970Z,2.50
2023-05-09T13:51:58.517Z,2.22
2023-05-09T13:54:27.008Z,2.40
2023-05-09T13:56:54.913Z,2.80
2023-05-09T13:59:23.206Z,1.95
2023-05-09T14:01:51.128Z,2.53
2023-05-09T14:04:19.128Z,2.63
2023-05-09T14:06:48.351Z,2.47
2023-05-09T14:09:18.275Z,2.20
2023-05-09T14:11:46.186Z,2.50
2023-05-09T14:14:14.270Z,2.25
2023-05-09T14:16:42.153Z,2.22
2023-05-09T14:19:10.197Z,2.20
2023-05-09T14:21:38.398Z,2.03
2023-05-09T14:24:07.793Z,2.05
2023-05-09T14:26:37.566Z,2.20
2023-05-09T14:29:06.715Z,2.60
2023-05-09T14:31:34.697Z,2.40
2023-05-09T14:34:02.642Z,2.60
2023-05-09T14:36:30.731Z,2.70
2023-05-09T14:38:58.892Z,2.05
2023-05-09T14:41:26.925Z,2.28
2023-05-09T14:43:56.523Z,2.03
2023-05-09T14:46:24.921Z,2.20
2023-05-09T14:48:52.927Z,2.15
2023-05-09T14:51:21.174Z,2.38
2023-05-09T14:53:49.082Z,1.92
2023-05-09T14:56:18.913Z,2.35
2023-05-09T14:58:47.002Z,2.05
2023-05-09T15:01:17.075Z,2.05
2023-05-09T15:03:44.969Z,2.40
2023-05-09T15:06:15.500Z,2.60
2023-05-09T15:08:43.666Z,2.33
2023-05-09T15:11:11.603Z,2.47
2023-05-09T15:13:39.663Z,2.30
2023-05-09T15:16:07.593Z,2.50
2023-05-09T15:18:37.076Z,2.45
2023-05-09T15:21:05.749Z,2.60
2023-05-09T15:23:33.736Z,2.20
2023-05-09T15:26:01.757Z,2.42
2023-05-09T15:28:29.918Z,2.63
2023-05-09T15:30:59.942Z,2.55
2023-05-09T15:33:28.373Z,2.50
2023-05-09T15:36:00.064Z,2.63
2023-05-09T15:38:28.309Z,1.90
2023-05-09T15:40:56.870Z,2.30
2023-05-09T15:43:25.100Z,2.40
2023-05-09T15:45:53.069Z,2.60
2023-05-09T15:48:21.129Z,2.97
2023-05-09T15:50:49.215Z,2.70
2023-05-09T15:53:18.649Z,2.70
2023-05-09T15:55:46.660Z,2.40
2023-05-09T15:58:16.531Z,2.58
2023-05-09T16:00:45.594Z,2.72
2023-05-09T16:03:13.686Z,2.70
2023-05-09T16:05:42.012Z,2.20
2023-05-09T16:08:10.147Z,2.40
2023-05-09T16:10:39.662Z,2.50
2023-05-09T16:13:08.684Z,2.67
2023-05-09T16:15:37.211Z,2.70
2023-05-09T16:18:05.433Z,2.30
2023-05-09T16:20:33.494Z,2.38
2023-05-09T16:23:01.573Z,2.50
2023-05-09T16:25:29.639Z,2.30
2023-05-09T16:27:59.163Z,2.60
2023-05-09T16:30:27.140Z,2.50
2023-05-09T16:32:55.194Z,2.55
2023-05-09T16:35:23.388Z,2.67
2023-05-09T16:37:51.436Z,2.50
2023-05-09T16:40:20.505Z,2.63
2023-05-09T16:42:48.560Z,2.08
2023-05-09T16:45:18.085Z,3.15
2023-05-09T16:47:46.139Z,2.42
2023-05-09T16:50:14.455Z,2.13
2023-05-09T16:52:42.684Z,2.28
2023-05-09T16:55:10.936Z,2.80
2023-05-09T16:57:39.255Z,2.50
2023-05-09T17:00:09.889Z,2.40
2023-05-09T17:02:39.226Z,2.58
2023-05-09T17:05:08.022Z,2.37
2023-05-09T17:07:35.992Z,2.30
2023-05-09T17:10:04.048Z,2.10
2023-05-09T17:12:32.118Z,2.55
2023-05-09T17:15:00.119Z,2.08
2023-05-09T17:17:31.181Z,2.20
2023-05-09T17:20:01.546Z,2.50
2023-05-09T17:24:57.317Z,2.67
2023-05-09T17:27:27.211Z,2.22
2023-05-09T17:29:55.236Z,2.35
2023-05-09T17:32:23.518Z,2.35
2023-05-09T17:34:51.691Z,2.30
2023-05-09T17:37:21.012Z,2.42
2023-05-09T17:39:48.920Z,2.40
2023-05-09T17:42:17.161Z,2.30
2023-05-09T17:44:45.283Z,2.88
2023-05-09T17:47:14.241Z,2.30
2023-05-09T17:49:42.414Z,2.10
2023-05-09T17:52:10.320Z,2.42
2023-05-09T17:54:39.798Z,2.00
2023-05-09T17:57:07.843Z,2.60
2023-05-09T17:59:35.980Z,2.10
2023-05-09T18:02:05.709Z,2.60
2023-05-09T18:04:34.554Z,2.07
2023-05-09T18:07:02.680Z,2.40
2023-05-09T18:09:31.026Z,2.23
2023-05-09T18:12:00.454Z,2.30
2023-05-09T18:14:28.541Z,2.30
2023-05-09T18:16:56.742Z,2.40
2023-05-09T18:19:25.112Z,2.53
2023-05-09T18:21:53.103Z,2.40
2023-05-09T18:24:21.697Z,2.90
2023-05-09T18:26:49.742Z,2.63
2023-05-09T18:29:19.576Z,2.83
2023-05-09T18:31:47.810Z,2.47
2023-05-09T18:34:15.862Z,2.50
2023-05-09T18:36:43.832Z,2.40
2023-05-09T18:39:13.790Z,2.80
2023-05-09T18:41:42.297Z,2.50
2023-05-09T18:44:10.883Z,2.63
2023-05-09T18:46:40.331Z,2.70
2023-05-09T18:49:09.629Z,2.73
2023-05-09T18:51:37.686Z,2.67
2023-05-09T18:54:08.796Z,2.63
2023-05-09T18:56:39.557Z,2.43
2023-05-09T18:59:09.476Z,2.50
2023-05-09T19:01:37.955Z,3.22
2023-05-09T19:04:07.494Z,2.87
2023-05-09T19:06:35.684Z,3.00
2023-05-09T19:09:04.370Z,3.13
2023-05-09T19:11:32.425Z,3.00
2023-05-09T19:14:00.417Z,2.50
2023-05-09T19:16:28.306Z,3.30
2023-05-09T19:18:57.298Z,2.90
2023-05-09T19:21:26.687Z,2.90
2023-05-09T19:23:54.538Z,3.00
2023-05-09T19:26:22.961Z,3.23
2023-05-09T19:28:50.917Z,3.40
2023-05-09T19:31:20.526Z,3.20
2023-05-09T19:33:49.684Z,2.90
2023-05-09T19:36:18.560Z,2.77
2023-05-09T19:38:47.892Z,3.47
2023-05-09T19:41:16.032Z,3.10
2023-05-09T19:43:44.032Z,2.90
2023-05-09T19:46:12.043Z,3.20
2023-05-09T19:48:40.176Z,2.97
2023-05-09T19:51:12.180Z,2.93
2023-05-09T19:53:41.011Z,2.83
2023-05-09T19:56:10.615Z,3.20
2023-05-09T19:58:38.600Z,3.08
2023-05-09T20:01:07.172Z,3.40
2023-05-09T20:03:37.217Z,3.40
2023-05-09T20:06:05.854Z,2.90
2023-05-09T20:08:33.954Z,3.63
2023-05-09T20:11:02.216Z,3.30
2023-05-09T20:13:31.647Z,3.60
2023-05-09T20:16:00.230Z,3.40
2023-05-09T20:18:28.603Z,3.13
2023-05-09T20:20:56.481Z,3.40
2023-05-09T20:23:24.407Z,3.40
2023-05-09T20:25:52.974Z,3.47
2023-05-09T20:28:22.573Z,3.07
2023-05-09T20:30:52.190Z,3.50
2023-05-09T20:33:20.767Z,3.50
2023-05-09T20:35:49.261Z,3.43
2023-05-09T20:38:17.335Z,3.20
2023-05-09T20:40:45.361Z,3.00
2023-05-09T20:43:13.328Z,3.40
2023-05-09T20:45:41.460Z,3.23
2023-05-09T20:48:11.045Z,3.20
2023-05-09T20:50:38.974Z,3.00
2023-05-09T20:53:06.829Z,3.30
2023-05-09T20:55:35.068Z,2.73
2023-05-09T20:58:03.364Z,2.83
2023-05-09T21:00:31.466Z,3.13
2023-05-09T21:03:00.619Z,2.97
2023-05-09T21:05:30.121Z,2.97
2023-05-09T21:07:58.009Z,3.30
2023-05-09T21:10:26.235Z,2.90
2023-05-09T21:12:54.224Z,2.97
2023-05-09T21:15:22.452Z,2.90
2023-05-09T21:17:50.784Z,3.10
2023-05-09T21:20:19.057Z,2.57
2023-05-09T21:22:48.535Z,3.20
2023-05-09T21:25:17.593Z,3.07
2023-05-09T21:27:47.378Z,3.17
2023-05-09T21:30:15.740Z,3.20
2023-05-09T21:32:43.979Z,3.00
2023-05-09T21:35:13.173Z,3.43
2023-05-09T21:37:41.267Z,3.17
2023-05-09T21:40:11.584Z,3.20
2023-05-09T21:42:41.143Z,3.63
2023-05-09T21:45:09.729Z,3.30
2023-05-09T21:47:39.698Z,3.37
2023-05-09T21:50:08.510Z,3.28
2023-05-09T21:52:36.565Z,3.87
2023-05-09T21:55:04.993Z,3.23
2023-05-09T21:57:34.279Z,3.17
2023-05-09T22:00:04.924Z,3.00
2023-05-09T22:02:34.301Z,3.03
2023-05-09T22:05:02.406Z,3.40
2023-05-09T22:07:30.333Z,3.53
2023-05-09T22:09:58.447Z,3.50
2023-05-09T22:12:26.465Z,3.37
2023-05-09T22:14:56.916Z,3.30
2023-05-09T22:17:25.535Z,3.73
2023-05-09T22:19:53.825Z,3.47
2023-05-09T22:22:22.784Z,3.80
2023-05-09T22:24:50.688Z,3.70
2023-05-09T22:27:19.924Z,3.97
2023-05-09T22:29:47.832Z,4.23
2023-05-09T22:32:17.304Z,3.50
2023-05-09T22:34:48.029Z,3.90
2023-05-09T22:37:15.988Z,4.00
2023-05-09T22:39:44.098Z,4.40
2023-05-09T22:42:12.200Z,4.20
2023-05-09T22:44:40.321Z,3.90
2023-05-09T22:47:09.105Z,4.70
2023-05-09T22:49:38.612Z,4.50
2023-05-09T22:52:06.566Z,4.55
2023-05-09T22:54:34.666Z,4.33
2023-05-09T22:57:02.734Z,4.73
2023-05-09T22:59:30.757Z,4.30
2023-05-09T23:01:59.399Z,4.67
2023-05-09T23:04:27.692Z,4.40
2023-05-09T23:06:57.337Z,5.17
2023-05-09T23:09:26.448Z,4.53
2023-05-09T23:11:55.024Z,5.00
2023-05-09T23:14:23.093Z,5.27
2023-05-09T23:16:51.070Z,4.77
2023-05-09T23:19:19.849Z,4.47
2023-05-09T23:21:48.078Z,4.20
2023-05-09T23:24:17.590Z,4.53
2023-05-09T23:26:45.657Z,4.57
2023-05-09T23:29:13.664Z,4.90
2023-05-09T23:31:42.731Z,4.20
2023-05-09T23:34:11.056Z,4.03
2023-05-09T23:36:39.573Z,4.23
2023-05-09T23:39:07.470Z,5.00
2023-05-09T23:41:36.907Z,4.73
2023-05-09T23:44:05.004Z,5.13
2023-05-09T23:46:32.950Z,4.80
2023-05-09T23:49:01.133Z,4.80
2023-05-09T23:51:29.301Z,5.17
2023-05-09T23:53:59.936Z,5.20
2023-05-09T23:56:28.489Z,5.70
2023-05-09T23:58:58.065Z,4.83
